Nearby METAR Reports

 

EGQL - Leuchars Raf, United Kingdom
Distance from station: SW 17km
Updated: 17/02/2020 10:50
Few Clouds
Few Clouds
 Wind from W
Wind: W 46 km/h
Temperature: 5°C
Wind Chill: -1°C
Dew Point: 2°C
Humidity: 81%
Barometer: 996 hPa
Clouds: Few Clouds
Visibility: 10 km
Cloud details: Few Clouds 762 m
2020/02/17 18:50 EGQL 171850Z 26025KT 9999 FEW025 05/02 Q0996 BLU
EGPN - Dundee/Riverside, United Kingdom
Distance from station: WSW 20km
Updated: 17/02/2020 10:50
Few Clouds
Few Clouds
 Wind from WSW
Wind: WSW 35 km/h
Temperature: 5°C
Wind Chill: -1°C
Dew Point: 3°C
Humidity: 87%
Barometer: 996 hPa
Clouds: Few Clouds
Visibility: 10 km
Cloud details: Few Clouds 610 m
2020/02/17 18:50 EGPN 171850Z 25019KT 9999 FEW020 05/03 Q0996
 
EGPH - Edinburgh Airpor, United Kingdom
Distance from station: SSW 74km
Updated: 17/02/2020 10:50
Light rain, Partly cloudy
Light rain, Partly cloudy
 Wind from WSW
Wind: WSW 33 km/h
Temperature: 4°C
Wind Chill: -2°C
Dew Point: 2°C
Humidity: 87%
Barometer: 998 hPa
Summary: Light rain
Clouds: Partly cloudy
Visibility: 10 km
Cloud details: Partly cloudy 213 m
Partly cloudy 488 m
2020/02/17 18:50 EGPH 171850Z 25018KT 9999 -RA SCT007 SCT016 04/02 Q0998
EGPD - Aberdeen/Dyce, United Kingdom
Distance from station: NNE 82km
Updated: 17/02/2020 10:50
Clear
Clear
 Wind from WSW
Wind: WSW 22 km/h
Temperature: 6°C
Wind Chill: 2°C
Dew Point: 0°C
Humidity: 66%
Barometer: 993 hPa
Clouds: Clear
Visibility: 10 km
2020/02/17 18:50 EGPD 171850Z AUTO 25012KT 9999 NCD 06/M00 Q0993 NOSIG